createdAt,value
2019-05-01T00:00:47.626Z,5.78
2019-05-01T00:03:20.635Z,6.25
2019-05-01T00:05:54.220Z,4.97
2019-05-01T00:08:26.546Z,5.55
2019-05-01T00:10:58.492Z,5.67
2019-05-01T00:13:32.786Z,6.28
2019-05-01T00:16:04.136Z,5.78
2019-05-01T00:18:35.674Z,6.47
2019-05-01T00:21:07.305Z,6.17
2019-05-01T00:23:38.873Z,5.87
2019-05-01T00:26:10.908Z,5.75
2019-05-01T00:28:42.568Z,5.72
2019-05-01T00:31:13.926Z,5.25
2019-05-01T00:33:45.810Z,6.45
2019-05-01T00:36:17.368Z,5.55
2019-05-01T00:38:48.678Z,6.53
2019-05-01T00:41:19.635Z,5.15
2019-05-01T00:43:51.146Z,5.33
2019-05-01T00:46:22.535Z,5.55
2019-05-01T00:48:54.165Z,5.62
2019-05-01T00:51:25.668Z,5.92
2019-05-01T00:53:57.224Z,5.65
2019-05-01T00:56:29.991Z,4.90
2019-05-01T00:59:03.080Z,5.72
2019-05-01T01:01:34.309Z,5.28
2019-05-01T01:04:06.131Z,5.58
2019-05-01T01:06:38.283Z,5.92
2019-05-01T01:09:10.494Z,5.10
2019-05-01T01:11:41.869Z,5.40
2019-05-01T01:14:13.012Z,5.05
2019-05-01T01:16:44.559Z,4.95
2019-05-01T01:19:15.858Z,5.40
2019-05-01T01:21:47.731Z,5.25
2019-05-01T01:24:18.930Z,5.10
2019-05-01T01:26:50.095Z,5.25
2019-05-01T01:29:21.388Z,4.85
2019-05-01T01:31:52.938Z,4.92
2019-05-01T01:34:24.552Z,5.22
2019-05-01T01:36:55.913Z,5.00
2019-05-01T01:39:28.273Z,4.80
2019-05-01T01:41:59.679Z,4.65
2019-05-01T01:44:32.309Z,5.67
2019-05-01T01:47:03.793Z,4.78
2019-05-01T01:49:35.693Z,5.00
2019-05-01T01:52:07.508Z,6.33
2019-05-01T01:54:38.796Z,5.35
2019-05-01T01:57:10.537Z,4.83
2019-05-01T01:59:42.507Z,4.50
2019-05-01T02:02:15.447Z,5.35
2019-05-01T02:04:48.467Z,5.25
2019-05-01T02:07:20.691Z,5.35
2019-05-01T02:09:52.099Z,5.33
2019-05-01T02:12:23.881Z,4.92
2019-05-01T02:14:55.093Z,5.33
2019-05-01T02:17:27.724Z,5.28
2019-05-01T02:19:59.597Z,5.37
2019-05-01T02:22:30.879Z,5.72
2019-05-01T02:25:02.925Z,5.67
2019-05-01T02:27:36.275Z,5.35
2019-05-01T02:30:09.794Z,5.45
2019-05-01T02:32:41.407Z,5.87
2019-05-01T02:35:13.330Z,5.60
2019-05-01T02:37:46.472Z,5.10
2019-05-01T02:40:21.021Z,5.85
2019-05-01T02:42:53.892Z,5.22
2019-05-01T02:45:26.817Z,4.95
2019-05-01T02:48:00.329Z,5.20
2019-05-01T02:50:34.450Z,4.92
2019-05-01T02:53:06.540Z,5.50
2019-05-01T02:55:40.392Z,4.90
2019-05-01T02:58:13.875Z,5.10
2019-05-01T03:00:45.679Z,5.08
2019-05-01T03:03:17.381Z,5.05
2019-05-01T03:05:49.187Z,4.80
2019-05-01T03:08:20.810Z,4.67
2019-05-01T03:10:52.895Z,4.25
2019-05-01T03:13:24.276Z,4.67
2019-05-01T03:15:56.956Z,4.53
2019-05-01T03:18:29.985Z,4.70
2019-05-01T03:21:03.001Z,5.62
2019-05-01T03:23:39.142Z,5.45
2019-05-01T03:26:10.334Z,5.40
2019-05-01T03:28:42.189Z,5.53
2019-05-01T03:31:15.085Z,5.08
2019-05-01T03:33:46.997Z,5.30
2019-05-01T03:38:48.987Z,4.50
2019-05-01T03:41:22.515Z,4.60
2019-05-01T03:43:54.153Z,4.90
2019-05-01T03:46:26.012Z,4.60
2019-05-01T03:48:57.636Z,5.55
2019-05-01T03:51:29.453Z,5.25
2019-05-01T03:54:02.626Z,5.20
2019-05-01T03:56:33.971Z,5.83
2019-05-01T03:59:05.913Z,5.55
2019-05-01T04:01:39.598Z,5.37
2019-05-01T04:04:13.002Z,4.78
2019-05-01T04:06:45.013Z,5.22
2019-05-01T04:09:17.422Z,5.43
2019-05-01T04:11:49.548Z,5.00
2019-05-01T04:14:22.987Z,5.65
2019-05-01T04:16:56.624Z,4.63
2019-05-01T04:19:28.318Z,4.78
2019-05-01T04:22:01.321Z,5.97
2019-05-01T04:24:33.320Z,5.37
2019-05-01T04:27:06.386Z,4.67
2019-05-01T04:29:39.698Z,5.43
2019-05-01T04:32:12.755Z,4.93
2019-05-01T04:34:43.747Z,5.42
2019-05-01T04:37:16.971Z,5.53
2019-05-01T04:39:49.358Z,4.93
2019-05-01T04:42:20.840Z,5.47
2019-05-01T04:44:52.569Z,5.20
2019-05-01T04:47:24.967Z,5.95
2019-05-01T04:49:56.230Z,4.87
2019-05-01T04:52:28.290Z,5.00
2019-05-01T04:54:59.940Z,5.58
2019-05-01T04:57:31.174Z,4.67
2019-05-01T05:00:04.043Z,4.83
2019-05-01T05:02:38.452Z,5.05
2019-05-01T05:05:11.544Z,5.30
2019-05-01T05:07:43.707Z,4.87
2019-05-01T05:10:15.842Z,4.95
2019-05-01T05:12:49.515Z,5.10
2019-05-01T05:15:22.903Z,5.12
2019-05-01T05:17:53.953Z,5.42
2019-05-01T05:20:25.971Z,5.33
2019-05-01T05:22:58.389Z,5.53
2019-05-01T05:25:29.900Z,5.47
2019-05-01T05:28:01.858Z,5.17
2019-05-01T05:30:35.212Z,5.13
2019-05-01T05:33:18.064Z,5.25
2019-05-01T05:35:43.812Z,4.83
2019-05-01T05:38:18.507Z,4.97
2019-05-01T05:40:52.372Z,5.05
2019-05-01T05:43:24.914Z,5.12
2019-05-01T05:45:57.114Z,4.83
2019-05-01T05:48:28.847Z,6.35
2019-05-01T05:51:02.457Z,5.72
2019-05-01T05:53:37.781Z,4.45
2019-05-01T05:56:13.732Z,6.20
2019-05-01T05:58:47.933Z,5.03
2019-05-01T06:01:22.012Z,5.13
2019-05-01T06:03:55.858Z,5.78
2019-05-01T06:06:31.033Z,4.55
2019-05-01T06:09:08.903Z,5.00
2019-05-01T06:11:43.323Z,5.33
2019-05-01T06:14:15.727Z,4.60
2019-05-01T06:16:52.150Z,5.35
2019-05-01T06:19:24.556Z,4.78
2019-05-01T06:21:57.944Z,4.45
2019-05-01T06:24:35.866Z,5.12
2019-05-01T06:27:08.903Z,5.10
2019-05-01T06:29:39.623Z,4.87
2019-05-01T06:32:11.069Z,5.12
2019-05-01T06:34:43.385Z,5.62
2019-05-01T06:37:14.831Z,4.78
2019-05-01T06:39:47.843Z,4.55
2019-05-01T06:42:21.636Z,4.92
2019-05-01T06:44:52.972Z,4.60
2019-05-01T06:47:27.468Z,4.83
2019-05-01T06:50:06.047Z,4.92
2019-05-01T06:52:38.493Z,4.70
2019-05-01T06:55:11.594Z,5.22
2019-05-01T06:57:45.529Z,5.20
2019-05-01T07:00:18.052Z,4.97
2019-05-01T07:02:50.938Z,4.83
2019-05-01T07:05:24.096Z,4.58
2019-05-01T07:07:56.659Z,5.33
2019-05-01T07:10:39.098Z,5.55
2019-05-01T07:13:05.411Z,4.55
2019-05-01T07:15:37.615Z,4.90
2019-05-01T07:18:11.498Z,5.05
2019-05-01T07:20:47.215Z,5.35
2019-05-01T07:23:17.343Z,5.17
2019-05-01T07:25:50.334Z,4.67
2019-05-01T07:28:22.939Z,5.05
2019-05-01T07:30:56.738Z,3.95
2019-05-01T07:33:29.707Z,4.58
2019-05-01T07:36:01.540Z,3.25
2019-05-01T07:38:38.308Z,3.70
2019-05-01T07:41:07.253Z,3.90
2019-05-01T07:43:40.749Z,3.55
2019-05-01T07:46:18.339Z,3.72
2019-05-01T07:48:48.109Z,3.80
2019-05-01T07:51:21.015Z,3.55
2019-05-01T07:53:53.477Z,3.40
2019-05-01T07:56:28.255Z,3.90
2019-05-01T07:58:58.270Z,3.50
2019-05-01T08:01:31.314Z,3.00
2019-05-01T08:04:04.029Z,3.05
2019-05-01T08:06:35.767Z,3.00
2019-05-01T08:09:11.263Z,3.42
2019-05-01T08:11:45.273Z,3.87
2019-05-01T08:14:18.546Z,3.55
2019-05-01T08:16:50.901Z,3.80
2019-05-01T08:19:24.688Z,3.33
2019-05-01T08:22:01.750Z,3.85
2019-05-01T08:24:31.979Z,3.60
2019-05-01T08:27:04.020Z,3.90
2019-05-01T08:29:41.961Z,3.70
2019-05-01T08:32:12.481Z,4.03
2019-05-01T08:34:49.278Z,3.55
2019-05-01T08:37:22.400Z,3.55
2019-05-01T08:39:53.073Z,3.95
2019-05-01T08:42:25.135Z,3.12
2019-05-01T08:44:59.838Z,3.42
2019-05-01T08:47:33.347Z,3.35
2019-05-01T08:50:11.896Z,3.37
2019-05-01T08:52:47.369Z,3.02
2019-05-01T08:55:15.859Z,3.70
2019-05-01T08:57:48.077Z,3.50
2019-05-01T09:00:19.741Z,3.25
2019-05-01T09:02:51.001Z,3.27
2019-05-01T09:05:29.139Z,3.40
2019-05-01T09:07:57.750Z,3.47
2019-05-01T09:10:30.758Z,3.02
2019-05-01T09:13:02.599Z,3.55
2019-05-01T09:15:34.321Z,3.42
2019-05-01T09:18:05.727Z,3.52
2019-05-01T09:23:09.511Z,5.87
2019-05-01T09:25:43.818Z,2.92
2019-05-01T09:28:16.907Z,4.17
2019-05-01T09:30:50.545Z,3.77
2019-05-01T09:33:26.136Z,3.17
2019-05-01T09:36:34.772Z,3.85
2019-05-01T09:39:23.115Z,3.70
2019-05-01T09:49:29.177Z,3.42
2019-05-01T09:52:02.748Z,3.40
2019-05-01T10:17:18.862Z,2.70
2019-05-01T10:22:21.186Z,3.80
2019-05-01T11:37:59.814Z,7.53
2019-05-01T11:40:33.308Z,8.13
2019-05-01T11:43:04.865Z,9.05
2019-05-01T11:45:35.714Z,9.18
2019-05-01T11:48:07.464Z,11.43
2019-05-01T11:50:39.157Z,10.82
2019-05-01T11:53:09.924Z,10.60
2019-05-01T11:55:41.392Z,11.38
2019-05-01T11:58:12.191Z,12.58
2019-05-01T12:00:44.442Z,10.50
2019-05-01T12:03:15.678Z,12.13
2019-05-01T12:05:47.346Z,9.08
2019-05-01T12:08:18.198Z,10.95
2019-05-01T12:10:49.696Z,10.48
2019-05-01T12:13:21.125Z,10.38
2019-05-01T12:15:53.554Z,10.40
2019-05-01T12:18:24.720Z,9.90
2019-05-01T12:20:55.442Z,9.48
2019-05-01T12:23:26.440Z,7.75
2019-05-01T12:25:58.363Z,8.40
2019-05-01T12:28:29.191Z,9.15
2019-05-01T12:31:00.720Z,9.25
2019-05-01T12:33:31.702Z,10.50
2019-05-01T12:36:03.457Z,10.60
2019-05-01T12:38:34.396Z,9.85
2019-05-01T12:41:06.947Z,10.88
2019-05-01T12:43:38.106Z,15.68
2019-05-01T12:46:11.670Z,11.30
2019-05-01T12:48:43.872Z,10.10
2019-05-01T12:51:16.111Z,10.25
2019-05-01T12:53:49.314Z,10.18
2019-05-01T12:56:21.784Z,12.98
2019-05-01T12:58:55.873Z,11.18
2019-05-01T13:01:26.552Z,14.47
2019-05-01T13:03:58.071Z,13.48
2019-05-01T13:06:29.695Z,14.83
2019-05-01T13:09:01.005Z,15.40
2019-05-01T13:11:34.065Z,14.07
2019-05-01T13:14:05.733Z,12.95
2019-05-01T13:16:37.812Z,14.18
2019-05-01T13:19:08.953Z,13.75
2019-05-01T13:21:41.193Z,13.78
2019-05-01T13:24:13.751Z,14.35
2019-05-01T13:26:45.674Z,15.23
2019-05-01T13:29:18.641Z,16.90
2019-05-01T13:31:51.792Z,16.35
2019-05-01T13:34:23.528Z,16.15
2019-05-01T13:37:02.890Z,15.43
2019-05-01T13:39:29.048Z,15.88
2019-05-01T13:42:00.638Z,17.05
2019-05-01T13:44:33.006Z,18.25
2019-05-01T13:47:04.760Z,17.85
2019-05-01T13:49:36.151Z,17.23
2019-05-01T13:52:08.484Z,18.67
2019-05-01T13:54:44.158Z,19.85
2019-05-01T13:57:15.620Z,20.30
2019-05-01T13:59:47.165Z,20.25
2019-05-01T14:02:19.535Z,21.25
2019-05-01T14:04:51.112Z,20.90
2019-05-01T14:07:24.633Z,20.70
2019-05-01T14:09:56.037Z,18.80
2019-05-01T14:12:32.836Z,17.07
2019-05-01T14:15:05.429Z,17.10
2019-05-01T14:17:38.877Z,18.65
2019-05-01T14:20:12.379Z,18.32
2019-05-01T14:22:45.162Z,19.00
2019-05-01T14:25:18.627Z,20.20
2019-05-01T14:27:50.629Z,21.68
2019-05-01T14:30:22.469Z,22.02
2019-05-01T14:32:53.717Z,19.90
2019-05-01T14:35:25.425Z,19.37
2019-05-01T14:37:57.430Z,19.82
2019-05-01T14:40:29.249Z,18.35
2019-05-01T14:43:00.758Z,18.23
2019-05-01T14:45:32.710Z,18.15
2019-05-01T14:48:04.483Z,17.17
2019-05-01T14:50:36.516Z,18.92
2019-05-01T14:53:08.804Z,17.75
2019-05-01T14:55:41.193Z,18.00
2019-05-01T14:58:12.850Z,18.15
2019-05-01T15:00:46.091Z,18.48
2019-05-01T15:03:19.421Z,19.20
2019-05-01T15:05:52.929Z,19.25
2019-05-01T15:08:25.920Z,19.30
2019-05-01T15:10:58.900Z,20.00
2019-05-01T15:13:32.821Z,17.27
2019-05-01T15:16:07.810Z,19.55
2019-05-01T15:18:41.489Z,18.62
2019-05-01T15:21:14.257Z,17.65
2019-05-01T15:23:53.378Z,16.95
2019-05-01T15:26:20.511Z,16.42
2019-05-01T15:28:52.262Z,16.75
2019-05-01T15:31:23.555Z,16.35
2019-05-01T15:33:55.142Z,16.23
2019-05-01T15:36:26.709Z,14.95
2019-05-01T15:38:58.791Z,14.80
2019-05-01T15:41:31.608Z,15.10
2019-05-01T15:44:03.859Z,15.58
2019-05-01T15:46:36.989Z,16.45
2019-05-01T15:49:09.880Z,16.67
2019-05-01T15:51:40.799Z,16.35
2019-05-01T15:54:12.790Z,14.68
2019-05-01T15:56:43.707Z,16.93
2019-05-01T15:59:14.970Z,16.25
2019-05-01T16:01:45.798Z,15.05
2019-05-01T16:04:17.251Z,14.23
2019-05-01T16:06:48.392Z,15.38
2019-05-01T16:09:20.071Z,14.95
2019-05-01T16:11:52.633Z,22.00
2019-05-01T16:14:24.741Z,19.55
2019-05-01T16:16:57.166Z,22.82
2019-05-01T16:19:29.085Z,17.10
2019-05-01T16:22:00.917Z,19.37
2019-05-01T16:24:32.361Z,23.25
2019-05-01T16:27:04.163Z,16.57
2019-05-01T16:29:35.881Z,18.05
2019-05-01T16:32:07.337Z,20.02
2019-05-01T16:34:44.796Z,20.32
2019-05-01T16:37:20.877Z,18.27
2019-05-01T16:43:10.865Z,17.10
2019-05-01T16:45:42.223Z,18.95
2019-05-01T16:48:18.049Z,17.70
2019-05-01T16:50:49.721Z,16.90
2019-05-01T16:53:30.969Z,16.87
2019-05-01T16:56:20.793Z,15.03
2019-05-01T16:58:56.145Z,16.20
2019-05-01T17:01:28.857Z,14.20
2019-05-01T17:04:04.320Z,24.63
2019-05-01T17:06:37.616Z,26.85
2019-05-01T17:09:12.500Z,15.45
2019-05-01T17:11:45.216Z,16.55
2019-05-01T17:14:18.453Z,16.67
2019-05-01T17:16:50.057Z,17.85
2019-05-01T17:19:21.495Z,15.75
2019-05-01T17:21:52.780Z,14.90
2019-05-01T17:24:23.938Z,14.45
2019-05-01T17:26:55.102Z,15.48
2019-05-01T17:29:26.382Z,15.28
2019-05-01T17:31:57.909Z,15.05
2019-05-01T17:34:30.689Z,15.85
2019-05-01T17:37:02.725Z,15.08
2019-05-01T17:39:36.644Z,15.20
2019-05-01T17:42:13.664Z,15.95
2019-05-01T17:44:44.687Z,14.58
2019-05-01T17:47:17.867Z,13.95
2019-05-01T17:49:49.282Z,15.70
2019-05-01T17:52:24.800Z,14.43
2019-05-01T17:54:57.924Z,16.10
2019-05-01T17:57:29.964Z,15.90
2019-05-01T18:00:09.562Z,14.90
2019-05-01T18:02:42.682Z,16.30
2019-05-01T18:05:17.875Z,15.10
2019-05-01T18:07:49.525Z,14.87
2019-05-01T18:10:21.004Z,15.63
2019-05-01T18:12:53.444Z,16.07
2019-05-01T18:15:24.963Z,15.75
2019-05-01T18:17:56.643Z,14.68
2019-05-01T18:20:29.724Z,14.60
2019-05-01T18:23:03.764Z,15.45
2019-05-01T18:25:38.362Z,15.32
2019-05-01T18:28:09.865Z,15.63
2019-05-01T18:30:46.244Z,17.05
2019-05-01T18:33:22.010Z,16.93
2019-05-01T18:35:59.416Z,15.58
2019-05-01T18:38:33.487Z,15.90
2019-05-01T18:41:24.800Z,15.68
2019-05-01T18:43:58.564Z,16.45
2019-05-01T18:46:34.646Z,14.78
2019-05-01T18:49:16.614Z,15.60
2019-05-01T18:51:48.028Z,16.15
2019-05-01T18:54:34.932Z,15.98
2019-05-01T18:57:39.845Z,16.85
2019-05-01T19:00:20.388Z,14.75
2019-05-01T19:02:59.555Z,14.83
2019-05-01T19:05:33.180Z,15.40
2019-05-01T19:08:09.141Z,15.95
2019-05-01T19:11:12.592Z,14.30
2019-05-01T19:13:42.164Z,15.13
2019-05-01T19:16:40.123Z,15.38
2019-05-01T19:19:12.709Z,16.48
2019-05-01T19:21:48.397Z,15.58
2019-05-01T19:24:20.021Z,17.77
2019-05-01T19:26:51.461Z,14.63
2019-05-01T19:29:26.567Z,15.50
2019-05-01T19:32:21.588Z,31.82
2019-05-01T19:35:18.856Z,31.77
2019-05-01T19:38:17.181Z,50.12
2019-05-01T19:41:18.484Z,17.82
2019-05-01T19:43:59.545Z,17.42
2019-05-01T19:46:38.099Z,16.00
2019-05-01T19:49:09.619Z,16.20
2019-05-01T19:51:41.060Z,14.93
2019-05-01T19:54:23.133Z,13.83
2019-05-01T19:56:59.031Z,14.13
2019-05-01T19:59:35.485Z,13.32
2019-05-01T20:02:37.926Z,15.85
2019-05-01T20:05:43.449Z,15.48
2019-05-01T20:08:22.770Z,15.90
2019-05-01T20:10:54.979Z,15.83
2019-05-01T20:13:37.525Z,15.50
2019-05-01T20:16:42.332Z,13.62
2019-05-01T20:19:45.473Z,13.72
2019-05-01T20:22:48.231Z,13.35
2019-05-01T20:25:37.840Z,12.05
2019-05-01T20:28:22.486Z,11.35
2019-05-01T20:30:58.424Z,11.40
2019-05-01T20:33:45.046Z,11.40
2019-05-01T20:36:27.037Z,10.88
2019-05-01T20:39:29.131Z,9.33
2019-05-01T20:42:29.044Z,9.38
2019-05-01T20:45:18.165Z,9.88
2019-05-01T20:48:00.656Z,10.95
2019-05-01T20:50:39.771Z,8.95
2019-05-01T20:53:16.104Z,8.93
2019-05-01T20:55:53.012Z,9.23
2019-05-01T20:58:30.359Z,7.85
2019-05-01T21:01:17.928Z,7.45
2019-05-01T21:03:58.592Z,8.15
2019-05-01T21:06:43.793Z,7.83
2019-05-01T21:09:18.327Z,7.58
2019-05-01T21:12:04.479Z,7.47
2019-05-01T21:14:28.165Z,7.83
2019-05-01T22:12:53.549Z,9.48
2019-05-01T22:15:26.897Z,9.13
2019-05-01T22:18:00.107Z,9.25
2019-05-01T22:20:33.274Z,8.55
2019-05-01T22:23:17.161Z,9.30
2019-05-01T22:26:01.979Z,8.18
2019-05-01T22:28:50.143Z,8.50
2019-05-01T22:31:27.831Z,8.33
2019-05-01T22:34:00.662Z,9.08
2019-05-01T22:36:32.185Z,9.35
2019-05-01T22:39:06.072Z,10.65
2019-05-01T22:41:39.847Z,13.18
2019-05-01T22:44:12.834Z,10.72
2019-05-01T22:46:44.120Z,15.03
2019-05-01T22:49:15.444Z,12.55
2019-05-01T22:51:47.051Z,12.80
2019-05-01T22:54:18.860Z,11.20
2019-05-01T22:56:50.426Z,10.98
2019-05-01T22:59:22.974Z,10.05
2019-05-01T23:01:55.619Z,9.65
2019-05-01T23:04:27.556Z,10.50
2019-05-01T23:06:59.236Z,9.68
2019-05-01T23:09:30.934Z,8.45
2019-05-01T23:12:02.627Z,9.45
2019-05-01T23:14:34.359Z,8.40
2019-05-01T23:17:07.214Z,9.65
2019-05-01T23:19:39.074Z,9.20
2019-05-01T23:22:10.676Z,8.25
2019-05-01T23:24:42.010Z,8.58
2019-05-01T23:27:13.350Z,9.95
2019-05-01T23:29:44.766Z,9.53
2019-05-01T23:32:16.078Z,9.70
2019-05-01T23:34:47.716Z,9.40
2019-05-01T23:37:18.940Z,9.08
2019-05-01T23:39:50.221Z,8.33
2019-05-01T23:42:21.119Z,9.95
2019-05-01T23:44:52.254Z,8.75
2019-05-01T23:47:23.527Z,9.70
2019-05-01T23:49:55.047Z,8.93
2019-05-01T23:52:26.516Z,8.25
2019-05-01T23:54:57.814Z,8.65
2019-05-01T23:57:29.048Z,8.63
